createdAt,value
2022-07-25T00:01:47.151Z,10.77
2022-07-25T00:04:14.539Z,11.70
2022-07-25T00:06:43.103Z,10.55
2022-07-25T00:09:10.257Z,9.68
2022-07-25T00:11:37.167Z,9.77
2022-07-25T00:14:05.158Z,9.85
2022-07-25T00:16:32.444Z,11.20
2022-07-25T00:18:59.519Z,10.65
2022-07-25T00:21:26.618Z,9.52
2022-07-25T00:23:53.305Z,10.00
2022-07-25T00:26:20.115Z,10.77
2022-07-25T00:28:46.784Z,10.32
2022-07-25T00:31:13.526Z,10.55
2022-07-25T00:33:40.449Z,10.75
2022-07-25T00:36:10.632Z,11.23
2022-07-25T00:38:37.447Z,10.70
2022-07-25T00:41:04.793Z,10.82
2022-07-25T00:43:31.769Z,9.65
2022-07-25T00:45:59.531Z,9.20
2022-07-25T00:48:28.000Z,10.20
2022-07-25T00:50:56.272Z,10.88
2022-07-25T00:53:22.965Z,10.65
2022-07-25T00:55:49.694Z,11.13
2022-07-25T00:58:16.694Z,10.50
2022-07-25T01:00:43.408Z,11.05
2022-07-25T01:03:10.445Z,10.13
2022-07-25T01:05:37.428Z,10.27
2022-07-25T01:08:04.793Z,10.25
2022-07-25T01:10:32.920Z,9.95
2022-07-25T01:12:59.733Z,11.52
2022-07-25T01:15:26.850Z,10.35
2022-07-25T01:17:53.571Z,11.68
2022-07-25T01:20:21.883Z,11.43
2022-07-25T01:22:48.687Z,9.95
2022-07-25T01:25:16.273Z,10.50
2022-07-25T01:27:43.831Z,11.80
2022-07-25T01:30:12.384Z,11.55
2022-07-25T01:32:39.225Z,11.20
2022-07-25T01:35:07.099Z,10.25
2022-07-25T01:37:34.219Z,11.40
2022-07-25T01:40:01.353Z,11.50
2022-07-25T01:42:28.542Z,10.38
2022-07-25T01:44:55.939Z,11.70
2022-07-25T01:47:22.659Z,11.63
2022-07-25T01:49:49.523Z,10.95
2022-07-25T01:52:16.363Z,10.75
2022-07-25T01:54:43.497Z,10.88
2022-07-25T01:57:10.667Z,12.77
2022-07-25T01:59:40.358Z,10.60
2022-07-25T02:02:08.249Z,11.60
2022-07-25T02:04:35.780Z,11.70
2022-07-25T02:07:02.746Z,9.60
2022-07-25T02:09:29.359Z,11.35
2022-07-25T02:11:56.337Z,10.65
2022-07-25T02:14:23.550Z,10.27
2022-07-25T02:16:50.435Z,10.73
2022-07-25T02:19:17.198Z,10.65
2022-07-25T02:21:44.070Z,12.60
2022-07-25T02:24:11.003Z,10.80
2022-07-25T02:26:37.673Z,9.98
2022-07-25T02:29:04.592Z,12.02
2022-07-25T02:31:31.292Z,12.70
2022-07-25T02:33:57.901Z,11.45
2022-07-25T02:36:24.643Z,11.20
2022-07-25T02:38:51.642Z,9.63
2022-07-25T02:41:18.291Z,11.40
2022-07-25T02:43:44.902Z,11.88
2022-07-25T02:46:11.602Z,11.18
2022-07-25T02:48:38.658Z,11.73
2022-07-25T02:51:05.524Z,12.02
2022-07-25T02:53:55.474Z,12.02
2022-07-25T02:56:18.759Z,10.90
2022-07-25T02:58:48.185Z,10.82
2022-07-25T03:01:15.324Z,11.82
2022-07-25T03:03:42.159Z,11.27
2022-07-25T03:06:08.935Z,12.13
2022-07-25T03:08:36.816Z,10.90
2022-07-25T03:11:03.652Z,12.20
2022-07-25T03:13:30.409Z,12.50
2022-07-25T03:15:57.066Z,10.88
2022-07-25T03:18:23.706Z,12.35
2022-07-25T03:20:50.309Z,11.23
2022-07-25T03:23:16.987Z,11.73
2022-07-25T03:25:43.685Z,13.00
2022-07-25T03:28:10.342Z,10.25
2022-07-25T03:30:36.997Z,11.68
2022-07-25T03:33:03.757Z,11.27
2022-07-25T03:35:30.356Z,10.80
2022-07-25T03:37:57.356Z,13.63
2022-07-25T03:40:23.985Z,11.35
2022-07-25T03:42:50.552Z,12.50
2022-07-25T03:45:17.947Z,12.60
2022-07-25T03:47:44.927Z,13.02
2022-07-25T03:50:11.962Z,13.38
2022-07-25T03:52:38.716Z,12.70
2022-07-25T03:55:10.465Z,11.10
2022-07-25T03:57:38.084Z,12.52
2022-07-25T04:00:07.479Z,11.65
2022-07-25T04:02:34.851Z,13.93
2022-07-25T04:05:01.754Z,12.20
2022-07-25T04:07:28.460Z,12.93
2022-07-25T04:09:55.213Z,14.10
2022-07-25T04:12:21.870Z,11.20
2022-07-25T04:14:48.474Z,13.02
2022-07-25T04:17:15.252Z,11.30
2022-07-25T04:19:41.969Z,11.05
2022-07-25T04:22:08.759Z,12.90
2022-07-25T04:24:35.441Z,13.25
2022-07-25T04:27:02.112Z,11.75
2022-07-25T04:29:29.684Z,12.02
2022-07-25T04:31:56.312Z,10.60
2022-07-25T04:34:23.078Z,10.82
2022-07-25T04:36:49.930Z,10.68
2022-07-25T04:39:16.488Z,12.82
2022-07-25T04:41:43.283Z,11.77
2022-07-25T04:44:09.984Z,11.27
2022-07-25T04:46:36.833Z,11.98
2022-07-25T04:49:03.517Z,11.55
2022-07-25T04:51:30.205Z,11.38
2022-07-25T04:53:56.804Z,11.88
2022-07-25T04:56:23.434Z,10.70
2022-07-25T04:58:50.053Z,12.60
2022-07-25T05:01:16.792Z,11.93
2022-07-25T05:03:49.893Z,13.45
2022-07-25T05:06:17.348Z,13.35
2022-07-25T05:08:44.032Z,12.45
2022-07-25T05:11:10.682Z,13.32
2022-07-25T05:13:37.286Z,11.13
2022-07-25T05:16:04.148Z,12.40
2022-07-25T05:18:31.059Z,11.63
2022-07-25T05:20:58.987Z,11.93
2022-07-25T05:23:25.656Z,11.85
2022-07-25T05:25:52.486Z,11.48
2022-07-25T05:28:19.180Z,12.23
2022-07-25T05:30:45.942Z,11.88
2022-07-25T05:33:12.659Z,13.13
2022-07-25T05:35:39.432Z,11.15
2022-07-25T05:38:06.075Z,11.63
2022-07-25T05:40:32.677Z,11.75
2022-07-25T05:43:03.013Z,13.18
2022-07-25T05:45:31.271Z,11.48
2022-07-25T05:47:57.903Z,12.57
2022-07-25T05:50:24.655Z,11.80
2022-07-25T05:52:51.313Z,13.02
2022-07-25T05:55:18.380Z,11.98
2022-07-25T05:57:45.278Z,12.32
2022-07-25T06:00:12.724Z,12.07
2022-07-25T06:02:39.601Z,12.80
2022-07-25T06:05:06.527Z,12.40
2022-07-25T06:07:33.210Z,12.32
2022-07-25T06:09:59.848Z,13.05
2022-07-25T06:12:26.568Z,14.23
2022-07-25T06:14:53.547Z,12.95
2022-07-25T06:17:20.934Z,12.45
2022-07-25T06:19:47.678Z,14.32
2022-07-25T06:22:14.400Z,14.65
2022-07-25T06:24:41.528Z,13.32
2022-07-25T06:27:08.923Z,12.77
2022-07-25T06:29:35.824Z,12.90
2022-07-25T06:32:02.939Z,14.18
2022-07-25T06:34:33.322Z,13.15
2022-07-25T06:36:59.958Z,13.52
2022-07-25T06:39:28.143Z,15.60
2022-07-25T06:41:55.016Z,13.20
2022-07-25T06:44:21.712Z,13.98
2022-07-25T06:46:48.427Z,13.38
2022-07-25T06:49:16.904Z,14.38
2022-07-25T06:51:44.035Z,13.77
2022-07-25T06:54:10.654Z,15.43
2022-07-25T06:56:37.272Z,14.27
2022-07-25T06:59:03.967Z,14.82
2022-07-25T07:01:30.817Z,14.70
2022-07-25T07:03:57.420Z,15.65
2022-07-25T07:06:24.157Z,14.80
2022-07-25T07:08:51.697Z,13.63
2022-07-25T07:11:18.397Z,12.82
2022-07-25T07:13:45.075Z,14.07
2022-07-25T07:16:11.835Z,13.15
2022-07-25T07:18:39.220Z,13.90
2022-07-25T07:21:06.814Z,15.43
2022-07-25T07:23:34.777Z,13.68
2022-07-25T07:26:03.537Z,13.38
2022-07-25T07:28:30.389Z,13.77
2022-07-25T07:33:43.827Z,14.25
2022-07-25T07:36:10.777Z,14.30
2022-07-25T07:38:37.376Z,17.13
2022-07-25T07:41:04.012Z,15.50
2022-07-25T07:43:32.020Z,16.38
2022-07-25T07:46:01.417Z,16.88
2022-07-25T07:48:31.610Z,13.70
2022-07-25T07:51:01.152Z,14.25
2022-07-25T07:53:46.904Z,16.65
2022-07-25T07:56:14.635Z,14.85
2022-07-25T07:58:41.282Z,15.50
2022-07-25T08:01:08.015Z,15.25
2022-07-25T08:03:34.682Z,16.98
2022-07-25T08:06:01.432Z,15.73
2022-07-25T08:08:31.400Z,14.82
2022-07-25T08:10:59.543Z,15.88
2022-07-25T08:13:30.561Z,16.13
2022-07-25T08:18:26.883Z,14.25
2022-07-25T08:20:53.659Z,14.77
2022-07-25T08:23:20.675Z,16.45
2022-07-25T08:25:47.439Z,14.90
2022-07-25T08:28:14.863Z,14.90
2022-07-25T08:30:42.135Z,16.63
2022-07-25T08:33:12.535Z,16.33
2022-07-25T08:35:41.085Z,14.15
2022-07-25T08:38:07.917Z,14.13
2022-07-25T08:40:35.268Z,12.93
2022-07-25T08:43:01.913Z,13.93
2022-07-25T08:45:28.841Z,14.55
2022-07-25T08:47:56.611Z,13.75
2022-07-25T08:50:27.215Z,13.13
2022-07-25T08:53:04.911Z,13.13
2022-07-25T08:55:43.618Z,14.07
2022-07-25T08:58:11.413Z,12.55
2022-07-25T09:00:38.944Z,13.43
2022-07-25T09:03:08.499Z,14.80
2022-07-25T09:05:36.828Z,13.68
2022-07-25T09:08:08.398Z,14.90
2022-07-25T09:10:36.081Z,13.73
2022-07-25T09:13:10.967Z,15.38
2022-07-25T09:15:40.458Z,13.38
2022-07-25T09:18:16.881Z,14.13
2022-07-25T09:20:48.117Z,14.07
2022-07-25T09:23:27.298Z,13.90
2022-07-25T09:26:10.928Z,13.48
2022-07-25T09:28:45.953Z,13.73
2022-07-25T09:31:14.439Z,14.75
2022-07-25T09:33:57.055Z,13.13
2022-07-25T09:36:24.152Z,13.38
2022-07-25T09:39:01.143Z,12.43
2022-07-25T09:41:35.161Z,13.07
2022-07-25T09:44:02.121Z,11.88
2022-07-25T09:46:32.979Z,13.38
2022-07-25T09:49:00.780Z,13.48
2022-07-25T09:51:29.106Z,12.70
2022-07-25T09:53:55.920Z,12.90
2022-07-25T09:56:22.680Z,12.90
2022-07-25T09:58:49.256Z,12.88
2022-07-25T10:01:22.946Z,13.73
2022-07-25T10:04:15.080Z,12.60
2022-07-25T10:06:52.621Z,11.98
2022-07-25T10:09:19.323Z,11.95
2022-07-25T10:12:06.868Z,10.23
2022-07-25T10:14:34.722Z,12.70
2022-07-25T10:17:02.128Z,11.43
2022-07-25T10:19:52.895Z,13.20
2022-07-25T10:22:39.734Z,13.75
2022-07-25T10:25:19.329Z,11.70
2022-07-25T10:27:52.941Z,12.80
2022-07-25T10:30:24.919Z,12.10
2022-07-25T10:33:02.343Z,11.00
2022-07-25T10:35:29.502Z,10.90
2022-07-25T10:37:58.288Z,10.57
2022-07-25T10:40:27.930Z,11.85
2022-07-25T10:43:22.123Z,12.67
2022-07-25T10:45:50.945Z,11.70
2022-07-25T10:48:32.763Z,10.48
2022-07-25T10:51:25.343Z,11.20
2022-07-25T10:53:52.161Z,10.45
2022-07-25T10:56:22.924Z,11.07
2022-07-25T10:58:51.525Z,10.82
2022-07-25T11:01:26.678Z,10.95
2022-07-25T11:03:56.513Z,10.60
2022-07-25T11:06:40.476Z,11.38
2022-07-25T11:09:18.500Z,10.57
2022-07-25T11:11:50.049Z,11.15
2022-07-25T11:14:22.427Z,10.23
2022-07-25T11:16:51.876Z,12.60
2022-07-25T11:19:22.950Z,10.35
2022-07-25T11:22:00.508Z,10.75
2022-07-25T11:24:43.075Z,11.68
2022-07-25T11:27:20.493Z,12.07
2022-07-25T11:29:47.073Z,10.48
2022-07-25T11:32:14.119Z,10.80
2022-07-25T11:34:53.333Z,11.02
2022-07-25T11:37:21.093Z,11.40
2022-07-25T11:39:48.293Z,11.38
2022-07-25T11:42:19.532Z,11.15
2022-07-25T11:44:52.880Z,10.20
2022-07-25T11:47:24.315Z,11.82
2022-07-25T11:49:52.445Z,10.75
2022-07-25T11:52:33.984Z,11.45
2022-07-25T11:55:02.674Z,10.80
2022-07-25T11:57:32.250Z,11.68
2022-07-25T12:00:00.463Z,10.77
2022-07-25T12:02:37.264Z,10.45
2022-07-25T12:05:10.296Z,11.30
2022-07-25T12:07:45.071Z,12.93
2022-07-25T12:10:23.384Z,11.57
2022-07-25T12:12:56.005Z,12.10
2022-07-25T12:15:28.945Z,10.73
2022-07-25T12:17:57.304Z,11.13
2022-07-25T12:20:26.643Z,11.02
2022-07-25T12:22:55.877Z,11.90
2022-07-25T12:25:28.908Z,15.07
2022-07-25T12:27:58.907Z,10.43
2022-07-25T12:30:27.494Z,10.43
2022-07-25T12:32:55.105Z,10.52
2022-07-25T12:35:24.815Z,10.90
2022-07-25T12:37:52.119Z,10.40
2022-07-25T12:40:19.933Z,10.18
2022-07-25T12:42:48.837Z,10.85
2022-07-25T12:45:17.849Z,11.30
2022-07-25T12:47:46.440Z,10.05
2022-07-25T12:50:13.832Z,9.98
2022-07-25T12:52:41.642Z,10.93
2022-07-25T12:55:10.440Z,11.52
2022-07-25T12:57:37.353Z,10.48
2022-07-25T13:00:05.871Z,10.88
2022-07-25T13:02:32.710Z,9.98
2022-07-25T13:04:59.761Z,10.07
2022-07-25T13:07:26.743Z,11.48
2022-07-25T13:09:53.295Z,10.07
2022-07-25T13:12:20.745Z,9.82
2022-07-25T13:14:47.891Z,10.05
2022-07-25T13:17:14.494Z,10.57
2022-07-25T13:19:41.100Z,9.82
2022-07-25T13:22:07.827Z,10.32
2022-07-25T13:24:34.667Z,10.15
2022-07-25T13:27:07.815Z,10.77
2022-07-25T13:29:34.551Z,10.65
2022-07-25T13:32:01.608Z,10.13
2022-07-25T13:34:28.577Z,10.85
2022-07-25T13:36:55.168Z,10.95
2022-07-25T13:39:22.536Z,9.32
2022-07-25T13:41:49.738Z,11.60
2022-07-25T13:44:16.822Z,10.57
2022-07-25T13:46:46.211Z,10.35
2022-07-25T13:49:13.253Z,9.50
2022-07-25T13:51:39.935Z,10.80
2022-07-25T13:54:07.174Z,10.75
2022-07-25T13:56:34.308Z,9.70
2022-07-25T13:59:03.541Z,9.30
2022-07-25T14:01:30.569Z,11.27
2022-07-25T14:03:57.290Z,10.43
2022-07-25T14:06:23.958Z,9.63
2022-07-25T14:08:50.582Z,9.30
2022-07-25T14:11:17.331Z,9.52
2022-07-25T14:13:45.318Z,10.23
2022-07-25T14:16:14.515Z,10.65
2022-07-25T14:18:41.160Z,9.93
2022-07-25T14:21:07.818Z,9.32
2022-07-25T14:23:34.586Z,10.77
2022-07-25T14:26:01.180Z,9.82
2022-07-25T14:28:27.905Z,9.75
2022-07-25T14:30:54.695Z,10.52
2022-07-25T14:33:21.434Z,10.93
2022-07-25T14:35:48.129Z,10.43
2022-07-25T14:38:14.829Z,9.55
2022-07-25T14:40:42.574Z,10.68
2022-07-25T14:43:09.163Z,9.95
2022-07-25T14:45:37.134Z,10.02
2022-07-25T14:48:06.972Z,9.90
2022-07-25T14:50:33.912Z,10.25
2022-07-25T14:53:00.588Z,9.52
2022-07-25T14:55:27.269Z,9.98
2022-07-25T14:57:53.911Z,9.80
2022-07-25T15:00:22.059Z,9.07
2022-07-25T15:02:51.608Z,8.77
2022-07-25T15:05:18.373Z,9.57
2022-07-25T15:07:45.111Z,14.80
2022-07-25T15:10:11.960Z,11.63
2022-07-25T15:12:38.772Z,10.90
2022-07-25T15:15:06.341Z,10.02
2022-07-25T15:17:33.747Z,11.57
2022-07-25T15:20:00.723Z,11.30
2022-07-25T15:22:27.318Z,10.15
2022-07-25T15:27:40.679Z,9.85
2022-07-25T15:30:07.791Z,11.15
2022-07-25T15:32:34.722Z,10.73
2022-07-25T15:35:01.470Z,10.05
2022-07-25T15:37:28.980Z,9.57
2022-07-25T15:39:56.008Z,9.43
2022-07-25T15:42:27.051Z,10.38
2022-07-25T15:45:15.254Z,10.38
2022-07-25T15:47:45.073Z,10.05
2022-07-25T15:50:14.464Z,11.95
2022-07-25T15:52:41.222Z,11.55
2022-07-25T15:55:08.052Z,11.45
2022-07-25T15:57:34.852Z,10.60
2022-07-25T16:00:01.422Z,10.15
2022-07-25T16:02:28.118Z,10.43
2022-07-25T16:04:54.658Z,12.27
2022-07-25T16:07:21.336Z,11.93
2022-07-25T16:09:48.079Z,10.68
2022-07-25T16:12:14.868Z,10.63
2022-07-25T16:14:41.622Z,10.88
2022-07-25T16:17:08.408Z,10.63
2022-07-25T16:19:35.127Z,10.50
2022-07-25T16:22:02.179Z,10.55
2022-07-25T16:24:28.748Z,11.88
2022-07-25T16:26:55.355Z,11.20
2022-07-25T16:29:22.212Z,11.25
2022-07-25T16:31:49.262Z,12.23
2022-07-25T16:34:15.911Z,11.38
2022-07-25T16:36:42.544Z,9.90
2022-07-25T16:39:13.375Z,10.80
2022-07-25T16:41:39.962Z,11.07
2022-07-25T16:44:07.064Z,11.30
2022-07-25T16:46:33.694Z,11.18
2022-07-25T16:49:00.397Z,12.05
2022-07-25T16:51:27.108Z,11.55
2022-07-25T16:53:53.954Z,10.38
2022-07-25T16:56:20.799Z,11.52
2022-07-25T16:58:47.614Z,10.57
2022-07-25T17:03:41.960Z,10.65
2022-07-25T17:06:09.471Z,12.57
2022-07-25T17:08:37.785Z,10.80
2022-07-25T17:11:05.457Z,10.98
2022-07-25T17:13:32.192Z,11.75
2022-07-25T17:15:58.911Z,10.38
2022-07-25T17:18:25.756Z,11.32
2022-07-25T17:20:54.537Z,11.50
2022-07-25T17:23:21.805Z,11.73
2022-07-25T17:25:50.658Z,11.07
2022-07-25T17:28:17.962Z,11.38
2022-07-25T17:30:45.688Z,11.82
2022-07-25T17:33:12.272Z,11.20
2022-07-25T17:35:42.311Z,12.05
2022-07-25T17:38:12.074Z,12.02
2022-07-25T17:40:45.164Z,10.98
2022-07-25T17:43:11.773Z,10.80
2022-07-25T17:45:38.619Z,10.30
2022-07-25T17:48:05.414Z,10.60
2022-07-25T17:50:32.253Z,10.45
2022-07-25T17:52:59.972Z,10.05
2022-07-25T17:55:28.137Z,11.43
2022-07-25T17:57:55.754Z,11.60
2022-07-25T18:00:23.352Z,11.40
2022-07-25T18:02:50.993Z,11.90
2022-07-25T18:05:18.128Z,10.82
2022-07-25T18:07:46.317Z,12.20
2022-07-25T18:10:20.206Z,12.73
2022-07-25T18:12:47.914Z,12.10
2022-07-25T18:15:14.997Z,12.90
2022-07-25T18:17:43.109Z,12.75
2022-07-25T18:20:10.576Z,12.23
2022-07-25T18:22:38.344Z,13.05
2022-07-25T18:25:06.515Z,12.88
2022-07-25T18:27:33.647Z,13.52
2022-07-25T18:30:00.403Z,11.50
2022-07-25T18:32:27.020Z,11.55
2022-07-25T18:34:53.836Z,11.38
2022-07-25T18:37:20.681Z,12.20
2022-07-25T18:39:47.421Z,12.00
2022-07-25T18:42:14.094Z,13.45
2022-07-25T18:44:40.631Z,10.85
2022-07-25T18:47:07.666Z,13.90
2022-07-25T18:49:34.315Z,12.10
2022-07-25T18:52:00.915Z,12.57
2022-07-25T18:54:27.909Z,11.98
2022-07-25T18:56:54.541Z,12.15
2022-07-25T18:59:21.261Z,13.10
2022-07-25T19:01:47.994Z,13.18
2022-07-25T19:04:15.353Z,11.98
2022-07-25T19:06:42.066Z,11.05
2022-07-25T19:09:09.070Z,11.10
2022-07-25T19:11:41.687Z,12.00
2022-07-25T19:14:09.372Z,11.88
2022-07-25T19:16:36.486Z,11.55
2022-07-25T19:19:03.563Z,12.57
2022-07-25T19:21:30.201Z,11.85
2022-07-25T19:23:56.896Z,12.32
2022-07-25T19:26:23.789Z,12.15
2022-07-25T19:28:51.146Z,11.27
2022-07-25T19:31:17.888Z,11.43
2022-07-25T19:33:45.992Z,13.88
2022-07-25T19:36:13.829Z,11.65
2022-07-25T19:38:40.413Z,14.38
2022-07-25T19:41:08.272Z,11.50
2022-07-25T19:43:35.593Z,11.93
2022-07-25T19:46:02.281Z,12.93
2022-07-25T19:48:28.973Z,12.50
2022-07-25T19:50:56.326Z,13.93
2022-07-25T19:53:28.091Z,11.25
2022-07-25T19:55:55.282Z,11.80
2022-07-25T19:58:21.887Z,10.68
2022-07-25T20:00:48.496Z,13.25
2022-07-25T20:03:15.685Z,11.60
2022-07-25T20:05:42.524Z,12.80
2022-07-25T20:08:09.127Z,12.05
2022-07-25T20:10:35.733Z,11.25
2022-07-25T20:13:02.399Z,12.02
2022-07-25T20:15:29.633Z,12.27
2022-07-25T20:17:56.978Z,10.07
2022-07-25T20:20:24.492Z,12.00
2022-07-25T20:22:51.540Z,11.48
2022-07-25T20:25:18.151Z,10.98
2022-07-25T20:27:45.038Z,10.45
2022-07-25T20:30:12.401Z,11.30
2022-07-25T20:32:39.083Z,11.50
2022-07-25T20:35:06.205Z,10.85
2022-07-25T20:37:32.961Z,11.13
2022-07-25T20:40:00.104Z,11.45
2022-07-25T20:42:27.379Z,12.15
2022-07-25T20:44:54.084Z,10.57
2022-07-25T20:47:20.843Z,11.02
2022-07-25T20:49:47.562Z,10.60
2022-07-25T20:52:14.170Z,11.93
2022-07-25T20:54:42.873Z,11.32
2022-07-25T20:57:11.552Z,11.00
2022-07-25T20:59:38.240Z,10.68
2022-07-25T21:02:04.932Z,11.48
2022-07-25T21:04:31.772Z,10.75
2022-07-25T21:06:58.434Z,11.13
2022-07-25T21:09:27.428Z,12.18
2022-07-25T21:11:57.723Z,11.77
2022-07-25T21:14:24.304Z,11.18
2022-07-25T21:16:50.989Z,10.93
2022-07-25T21:19:17.631Z,11.90
2022-07-25T21:21:44.807Z,10.45
2022-07-25T21:24:12.398Z,13.27
2022-07-25T21:26:39.506Z,11.25
2022-07-25T21:29:07.374Z,12.27
2022-07-25T21:31:34.683Z,13.63
2022-07-25T21:34:02.109Z,11.40
2022-07-25T21:36:30.137Z,15.23
2022-07-25T21:38:56.809Z,14.13
2022-07-25T21:41:23.553Z,16.20
2022-07-25T21:43:50.892Z,14.52
2022-07-25T21:46:17.649Z,15.02
2022-07-25T21:49:02.821Z,14.88
2022-07-25T21:51:40.208Z,14.32
2022-07-25T21:54:07.305Z,12.93
2022-07-25T21:56:33.926Z,12.98
2022-07-25T21:59:00.535Z,11.80
2022-07-25T22:01:27.122Z,12.52
2022-07-25T22:03:53.825Z,12.40
2022-07-25T22:06:20.780Z,12.13
2022-07-25T22:08:47.393Z,13.77
2022-07-25T22:11:16.086Z,12.98
2022-07-25T22:14:01.893Z,11.50
2022-07-25T22:16:28.572Z,11.45
2022-07-25T22:18:57.206Z,11.88
2022-07-25T22:21:23.987Z,12.25
2022-07-25T22:23:50.631Z,12.25
2022-07-25T22:26:17.352Z,12.40
2022-07-25T22:28:43.924Z,11.27
2022-07-25T22:31:10.606Z,10.75
2022-07-25T22:33:38.314Z,11.73
2022-07-25T22:36:05.739Z,12.07
2022-07-25T22:38:32.463Z,11.68
2022-07-25T22:40:59.016Z,10.80
2022-07-25T22:43:25.571Z,11.43
2022-07-25T22:46:12.684Z,10.05
2022-07-25T22:48:42.154Z,11.52
2022-07-25T22:51:08.743Z,11.10
2022-07-25T22:53:35.426Z,10.05
2022-07-25T22:56:02.076Z,11.38
2022-07-25T22:58:28.746Z,10.55
2022-07-25T23:00:55.491Z,11.50
2022-07-25T23:03:22.571Z,11.38
2022-07-25T23:05:49.357Z,10.48
2022-07-25T23:08:20.508Z,10.23
2022-07-25T23:10:47.243Z,10.73
2022-07-25T23:13:13.833Z,10.07
2022-07-25T23:15:51.041Z,11.18
2022-07-25T23:18:18.741Z,10.02
2022-07-25T23:20:45.394Z,10.75
2022-07-25T23:23:12.591Z,10.55
2022-07-25T23:25:39.246Z,10.55
2022-07-25T23:28:06.010Z,10.93
2022-07-25T23:30:38.043Z,11.10
2022-07-25T23:33:06.497Z,11.20
2022-07-25T23:35:33.148Z,11.15
2022-07-25T23:37:59.817Z,9.75
2022-07-25T23:40:26.974Z,11.43
2022-07-25T23:42:54.500Z,10.55
2022-07-25T23:45:22.012Z,10.13
2022-07-25T23:47:52.118Z,12.20
2022-07-25T23:50:19.850Z,10.57
2022-07-25T23:52:46.785Z,11.50
2022-07-25T23:55:13.482Z,9.98
2022-07-25T23:57:40.082Z,11.93
